Time;durP1;ratioP1;P1;durP2;ratioP2;P2;SDS_P1;SDS_P2;PMS_P1;PMS_P2;Temp;Humidity;BMP_temperature;BMP_pressure;BME280_temperature;BME280_humidity;BME280_pressure;Samples;Min_cycle;Max_cycle;Signal;HPM_P1;HPM_P2
2023/01/02 00:01:02;;;;;;;26.65;14.50;;;10.30;99.90;;;;;;5154952;27;20046;-81
2023/01/02 00:03:28;;;;;;;23.05;13.93;;;9.90;99.90;;;;;;5154812;27;20121;-81
2023/01/02 00:05:54;;;;;;;22.42;12.73;;;10.30;99.90;;;;;;5156159;27;20499;-79
2023/01/02 00:08:19;;;;;;;20.73;12.20;;;10.60;99.90;;;;;;5158553;27;20049;-78
2023/01/02 00:10:45;;;;;;;25.42;13.07;;;9.80;99.90;;;;;;5158296;27;20107;-81
2023/01/02 00:13:11;;;;;;;26.73;13.23;;;10.20;99.90;;;;;;5158229;27;20035;-79
2023/01/02 00:15:37;;;;;;;20.33;12.00;;;11.30;99.90;;;;;;5158317;27;20517;-80
2023/01/02 00:18:02;;;;;;;25.98;13.75;;;10.30;99.90;;;;;;5158190;27;20126;-79
2023/01/02 00:20:28;;;;;;;31.13;12.40;;;11.00;99.90;;;;;;5158228;27;20062;-80
2023/01/02 00:22:53;;;;;;;26.10;13.05;;;10.00;99.90;;;;;;5158168;27;20047;-81
2023/01/02 00:25:19;;;;;;;25.75;13.57;;;10.40;99.90;;;;;;5157821;27;20470;-79
2023/01/02 00:27:45;;;;;;;24.23;12.57;;;10.40;99.90;;;;;;5158020;27;20038;-83
2023/01/02 00:30:11;;;;;;;27.42;12.82;;;10.40;99.90;;;;;;5157932;27;20470;-79
2023/01/02 00:32:36;;;;;;;20.57;11.93;;;10.40;99.90;;;;;;5157722;27;20039;-79
2023/01/02 00:35:02;;;;;;;24.42;13.38;;;10.50;99.90;;;;;;5139794;27;20046;-81
2023/01/02 00:37:27;;;;;;;25.73;12.95;;;10.40;99.90;;;;;;5157838;27;20074;-78
2023/01/02 00:39:53;;;;;;;25.95;13.25;;;10.90;99.90;;;;;;5139276;27;20129;-82
2023/01/02 00:42:19;;;;;;;27.42;14.40;;;10.80;99.90;;;;;;5157474;27;20053;-79
2023/01/02 00:44:44;;;;;;;22.75;13.50;;;10.40;99.90;;;;;;5157785;27;20046;-81
2023/01/02 00:47:10;;;;;;;25.00;13.95;;;10.50;99.90;;;;;;5157812;27;20044;-80
2023/01/02 00:49:36;;;;;;;25.67;13.45;;;11.20;99.90;;;;;;5139555;27;20055;-82
2023/01/02 00:52:01;;;;;;;22.45;12.82;;;10.50;99.90;;;;;;5139409;27;20082;-76
2023/01/02 00:54:27;;;;;;;26.48;13.50;;;10.50;99.90;;;;;;5157762;27;20129;-80
2023/01/02 00:56:52;;;;;;;27.27;14.23;;;11.10;99.90;;;;;;5158167;27;20477;-80
2023/01/02 00:59:18;;;;;;;27.08;12.93;;;10.50;99.90;;;;;;5157513;27;20041;-80
2023/01/02 01:01:43;;;;;;;23.02;12.82;;;10.60;99.90;;;;;;5157263;27;20034;-81
2023/01/02 01:04:09;;;;;;;23.13;12.95;;;10.00;99.90;;;;;;5157590;27;20091;-80
2023/01/02 01:06:35;;;;;;;20.00;12.40;;;10.60;99.90;;;;;;5138921;27;20070;-81
2023/01/02 01:09:01;;;;;;;20.92;12.18;;;10.60;99.90;;;;;;5157381;27;20557;-77
2023/01/02 01:11:26;;;;;;;18.50;11.55;;;10.70;99.90;;;;;;5156851;27;20434;-79
2023/01/02 01:13:52;;;;;;;20.15;11.32;;;10.70;99.90;;;;;;5157265;27;20038;-77
2023/01/02 01:16:18;;;;;;;18.85;12.85;;;10.70;99.90;;;;;;5157277;27;20071;-79
2023/01/02 01:18:45;;;;;;;22.65;12.35;;;10.80;99.90;;;;;;5156805;27;20443;-79
2023/01/02 01:21:14;;;;;;;20.70;10.95;;;10.60;99.90;;;;;;5157441;27;20046;-81
2023/01/02 01:23:40;;;;;;;18.77;10.13;;;10.30;99.90;;;;;;5157001;27;20095;-81
2023/01/02 01:26:08;;;;;;;21.63;11.65;;;10.80;99.90;;;;;;5157019;27;20042;-77
2023/01/02 01:28:34;;;;;;;17.80;9.57;;;11.50;99.90;;;;;;5138589;27;20050;-79
2023/01/02 01:31:11;;;;;;;17.88;10.27;;;10.90;99.90;;;;;;5157392;27;20035;-82
2023/01/02 01:33:38;;;;;;;18.73;9.77;;;10.90;99.90;;;;;;5157293;27;20093;-79
2023/01/02 01:36:05;;;;;;;17.85;9.20;;;11.60;99.90;;;;;;5156843;27;20035;-78
2023/01/02 01:38:30;;;;;;;;;;;10.90;99.90;;;;;;5138879;27;20043;-78
2023/01/02 01:40:56;;;;;;;17.08;8.15;;;11.40;99.90;;;;;;5156721;27;19941;-82
2023/01/02 01:43:42;;;;;;;16.45;8.20;;;11.20;99.90;;;;;;5157035;27;20474;-80
2023/01/02 01:46:29;;;;;;;21.65;8.82;;;10.90;99.90;;;;;;5156602;27;20074;-81
2023/01/02 01:49:07;;;;;;;17.27;9.20;;;11.00;99.90;;;;;;5156399;27;20046;-82
2023/01/02 01:51:43;;;;;;;18.25;8.35;;;11.30;99.90;;;;;;5156436;27;20047;-78
2023/01/02 01:54:11;;;;;;;19.30;8.65;;;11.00;99.90;;;;;;5156228;27;20039;-80
2023/01/02 01:56:42;;;;;;;16.20;8.57;;;11.00;99.90;;;;;;5156235;27;20042;-81
2023/01/02 01:59:09;;;;;;;18.05;8.35;;;11.00;99.90;;;;;;5156012;27;20403;-82
2023/01/02 02:01:36;;;;;;;17.80;8.38;;;10.40;99.90;;;;;;5137651;27;20043;-81
2023/01/02 02:04:02;;;;;;;17.88;8.63;;;10.60;99.90;;;;;;5156174;27;20394;-81
2023/01/02 02:06:28;;;;;;;18.67;8.40;;;11.00;99.90;;;;;;5156176;27;20049;-79
2023/01/02 02:08:59;;;;;;;18.07;8.50;;;11.50;99.90;;;;;;5156522;27;20053;-80
2023/01/02 02:11:26;;;;;;;12.40;8.25;;;11.00;99.90;;;;;;5138069;27;20278;-83
2023/01/02 02:13:59;;;;;;;15.70;8.02;;;11.00;99.90;;;;;;5137199;27;20391;-83
2023/01/02 02:16:40;;;;;;;15.45;7.78;;;11.00;99.90;;;;;;5155953;27;20039;-78
2023/01/02 02:19:18;;;;;;;13.98;7.57;;;11.00;99.90;;;;;;5156263;27;20057;-82
2023/01/02 02:22:00;;;;;;;;;;;11.00;99.90;;;;;;5156420;27;20042;-79
2023/01/02 02:24:50;;;;;;;16.10;7.35;;;11.00;99.90;;;;;;5155626;27;20363;-80
2023/01/02 02:27:37;;;;;;;13.70;6.32;;;11.00;99.90;;;;;;5137662;27;20047;-80
2023/01/02 02:30:22;;;;;;;13.82;6.68;;;11.10;99.90;;;;;;5155599;27;20053;-79
2023/01/02 02:33:17;;;;;;;14.30;6.70;;;11.10;99.90;;;;;;5155508;27;20054;-81
2023/01/02 02:36:11;;;;;;;17.40;6.85;;;11.10;99.90;;;;;;5142102;27;20141;-79
2023/01/02 02:38:53;;;;;;;14.85;6.72;;;11.10;99.90;;;;;;5155382;27;20054;-80
2023/01/02 02:41:24;;;;;;;12.50;5.97;;;11.20;99.90;;;;;;5155392;27;20107;-82
2023/01/02 02:44:21;;;;;;;15.57;6.82;;;11.20;99.90;;;;;;5155525;27;20122;-81
2023/01/02 02:46:57;;;;;;;15.80;6.53;;;11.20;99.90;;;;;;5137065;27;20046;-78
2023/01/02 02:49:41;;;;;;;17.55;6.63;;;11.20;99.90;;;;;;5155649;27;20043;-79
2023/01/02 02:52:35;;;;;;;15.95;6.57;;;11.20;99.90;;;;;;5155856;27;20054;-80
2023/01/02 02:55:13;;;;;;;13.48;6.47;;;11.20;99.90;;;;;;5098121;27;20054;-79
2023/01/02 02:57:40;;;;;;;11.77;6.20;;;11.20;99.90;;;;;;5155509;27;20054;-79
2023/01/02 03:00:07;;;;;;;;;;;11.20;99.90;;;;;;5155750;27;20047;-82
2023/01/02 03:02:33;;;;;;;12.15;5.68;;;11.20;99.90;;;;;;5155088;27;19926;-80
2023/01/02 03:05:02;;;;;;;9.15;6.22;;;11.00;99.90;;;;;;5155414;27;20467;-81
2023/01/02 03:07:38;;;;;;;17.05;6.65;;;11.30;99.90;;;;;;5155257;27;20074;-81
2023/01/02 03:10:32;;;;;;;18.52;7.68;;;11.20;99.90;;;;;;5137279;27;20494;-79
2023/01/02 03:13:13;;;;;;;15.48;6.88;;;11.20;99.90;;;;;;5155322;27;20039;-81
2023/01/02 03:16:15;;;;;;;14.55;6.60;;;11.20;99.90;;;;;;5155196;27;20042;-79
2023/01/02 03:19:00;;;;;;;11.75;6.03;;;11.20;99.90;;;;;;5155585;27;20050;-82
2023/01/02 03:21:44;;;;;;;12.40;6.05;;;11.20;99.90;;;;;;5155542;27;20130;-80
2023/01/02 03:24:13;;;;;;;15.93;6.85;;;11.30;99.90;;;;;;5155574;27;20046;-82
2023/01/02 03:26:42;;;;;;;14.40;6.80;;;11.30;99.90;;;;;;5155206;27;20042;-79
2023/01/02 03:29:24;;;;;;;15.40;6.75;;;11.70;99.90;;;;;;5155063;27;20048;-82
2023/01/02 03:31:54;;;;;;;14.60;6.53;;;11.30;99.90;;;;;;5155150;27;20137;-79
2023/01/02 03:34:24;;;;;;;13.82;7.50;;;11.20;99.90;;;;;;5154957;27;20038;-81
2023/01/02 03:36:56;;;;;;;15.23;7.05;;;10.90;99.90;;;;;;5155034;27;20049;-78
2023/01/02 03:39:27;;;;;;;10.90;6.68;;;11.30;99.90;;;;;;5155238;27;20042;-79
2023/01/02 03:41:58;;;;;;;19.65;6.85;;;11.20;99.90;;;;;;5158151;27;20107;-80
2023/01/02 03:44:29;;;;;;;10.57;6.18;;;11.20;99.90;;;;;;5159018;27;20046;-79
2023/01/02 03:47:07;;;;;;;14.45;6.60;;;11.30;99.90;;;;;;5159047;27;20049;-79
2023/01/02 03:49:38;;;;;;;14.60;6.43;;;11.20;99.90;;;;;;5140696;27;20382;-81
2023/01/02 03:52:04;;;;;;;11.43;6.32;;;11.20;99.90;;;;;;5158826;27;20041;-79
2023/01/02 03:54:30;;;;;;;15.27;7.25;;;10.80;99.90;;;;;;5158607;27;20157;-78
2023/01/02 03:57:00;;;;;;;13.40;6.30;;;11.50;99.90;;;;;;5158701;27;20432;-81
2023/01/02 03:59:41;;;;;;;13.13;6.63;;;11.30;99.90;;;;;;5158606;27;20046;-80
2023/01/02 04:02:15;;;;;;;11.27;6.20;;;11.30;99.90;;;;;;5158558;27;20043;-82
2023/01/02 04:04:55;;;;;;;14.93;6.85;;;11.30;99.90;;;;;;5158414;27;20043;-79
2023/01/02 04:07:41;;;;;;;17.08;7.47;;;11.30;99.90;;;;;;5140198;27;20077;-79
2023/01/02 04:10:10;;;;;;;13.30;7.57;;;11.20;99.90;;;;;;5158443;27;20059;-80
2023/01/02 04:12:39;;;;;;;15.88;7.97;;;11.40;99.90;;;;;;5140308;27;20095;-81
2023/01/02 04:15:07;;;;;;;21.92;9.40;;;11.40;99.90;;;;;;5158040;27;20046;-81
2023/01/02 04:17:42;;;;;;;16.10;7.45;;;11.40;99.90;;;;;;5158239;27;20051;-81
2023/01/02 04:20:13;;;;;;;12.07;7.30;;;11.40;99.90;;;;;;5124220;27;20080;-79
2023/01/02 04:22:49;;;;;;;14.10;7.53;;;11.30;99.90;;;;;;5158621;27;20046;-83
2023/01/02 04:25:16;;;;;;;16.08;6.63;;;11.40;99.90;;;;;;5158428;27;20070;-79
2023/01/02 04:28:04;;;;;;;19.35;9.82;;;10.80;99.90;;;;;;5158035;27;20045;-79
2023/01/02 04:30:33;;;;;;;14.43;6.90;;;11.40;99.90;;;;;;5158282;27;20045;-82
2023/01/02 04:33:05;;;;;;;11.27;6.22;;;11.30;99.90;;;;;;5139758;27;20038;-80
2023/01/02 04:35:33;;;;;;;9.30;5.93;;;11.40;99.90;;;;;;5157944;27;20062;-79
2023/01/02 04:38:05;;;;;;;11.98;6.13;;;11.50;99.90;;;;;;5157890;27;20124;-81
2023/01/02 04:40:35;;;;;;;17.55;6.38;;;11.50;99.90;;;;;;5157843;27;20055;-80
2023/01/02 04:43:00;;;;;;;15.98;7.30;;;11.50;99.90;;;;;;5138806;27;20053;-81
2023/01/02 04:45:26;;;;;;;16.02;6.57;;;11.50;99.90;;;;;;5157669;27;20046;-80
2023/01/02 04:47:52;;;;;;;11.25;5.90;;;10.90;99.90;;;;;;5157702;27;20042;-82
2023/01/02 04:50:17;;;;;;;14.55;6.25;;;11.60;99.90;;;;;;5157727;27;20091;-83
2023/01/02 04:52:43;;;;;;;11.48;5.68;;;11.50;99.90;;;;;;5157269;27;20038;-82
2023/01/02 04:55:09;;;;;;;13.27;6.60;;;12.30;99.90;;;;;;5139130;27;20077;-78
2023/01/02 04:57:35;;;;;;;13.27;6.00;;;11.50;99.90;;;;;;5157537;27;20432;-82
2023/01/02 05:00:02;;;;;;;12.13;6.25;;;11.50;99.90;;;;;;5157304;27;20046;-81
2023/01/02 05:02:28;;;;;;;9.90;5.68;;;11.60;99.90;;;;;;5138898;27;20041;-81
2023/01/02 05:04:53;;;;;;;13.75;6.50;;;11.60;99.90;;;;;;5157388;27;20039;-80
2023/01/02 05:07:19;;;;;;;13.05;6.30;;;11.60;99.90;;;;;;5157298;27;20057;-79
2023/01/02 05:09:44;;;;;;;14.73;6.03;;;11.60;99.90;;;;;;5157177;27;20047;-80
2023/01/02 05:12:10;;;;;;;14.00;6.35;;;12.00;99.90;;;;;;5157648;27;20164;-82
2023/01/02 05:14:36;;;;;;;13.60;6.45;;;11.70;99.90;;;;;;5157166;27;20401;-81
2023/01/02 05:17:01;;;;;;;20.30;6.85;;;11.30;99.90;;;;;;5157150;27;20125;-80
2023/01/02 05:19:27;;;;;;;13.25;6.90;;;11.60;99.90;;;;;;5157193;27;20046;-80
2023/01/02 05:24:37;;;;;;;13.55;5.90;;;11.60;99.90;;;;;;5157034;27;20051;-82
2023/01/02 05:27:02;;;;;;;19.88;5.93;;;11.70;99.90;;;;;;5156795;27;20497;-82
2023/01/02 05:29:28;;;;;;;10.77;6.05;;;11.60;99.90;;;;;;5157106;27;20035;-84
2023/01/02 05:31:54;;;;;;;10.75;5.50;;;11.60;99.90;;;;;;5156511;27;20424;-81
2023/01/02 05:34:19;;;;;;;14.88;6.35;;;11.40;99.90;;;;;;5156894;27;20046;-81
2023/01/02 05:36:45;;;;;;;16.20;5.43;;;11.40;99.90;;;;;;5138502;27;20057;-79
2023/01/02 05:39:13;;;;;;;13.38;6.75;;;11.60;99.90;;;;;;5138511;27;20043;-82
2023/01/02 05:41:39;;;;;;;15.10;6.32;;;11.70;99.90;;;;;;5156663;27;20050;-80
2023/01/02 05:44:09;;;;;;;13.35;6.40;;;11.60;99.90;;;;;;5156605;27;20050;-80
2023/01/02 05:46:35;;;;;;;14.30;5.95;;;11.60;99.90;;;;;;5156544;27;20061;-82
2023/01/02 05:49:08;;;;;;;10.80;5.85;;;11.60;99.90;;;;;;5156470;27;20038;-78
2023/01/02 05:51:34;;;;;;;14.90;6.00;;;11.60;99.90;;;;;;5156321;27;20125;-79
2023/01/02 05:54:00;;;;;;;13.75;6.00;;;12.00;99.90;;;;;;5156380;27;20078;-79
2023/01/02 05:56:27;;;;;;;9.13;5.90;;;11.70;99.90;;;;;;5156365;27;20395;-81
2023/01/02 05:58:53;;;;;;;12.77;5.53;;;11.70;99.90;;;;;;5137806;27;20050;-81
2023/01/02 06:01:21;;;;;;;14.52;6.95;;;11.70;99.90;;;;;;5120827;27;20076;-78
2023/01/02 06:03:49;;;;;;;14.75;6.72;;;11.70;99.90;;;;;;5155281;27;20038;-82
2023/01/02 06:06:16;;;;;;;15.98;7.00;;;12.50;99.90;;;;;;5155880;27;20047;-79
2023/01/02 06:08:42;;;;;;;12.30;6.70;;;11.70;99.90;;;;;;5156224;27;20046;-78
2023/01/02 06:11:08;;;;;;;11.60;6.47;;;12.30;99.90;;;;;;5137694;27;20045;-79
2023/01/02 06:13:36;;;;;;;12.07;6.13;;;11.70;99.90;;;;;;5155772;27;20050;-79
2023/01/02 06:16:03;;;;;;;12.10;5.88;;;11.80;99.90;;;;;;5155825;27;20485;-81
2023/01/02 06:18:30;;;;;;;11.38;5.82;;;11.70;99.90;;;;;;5155533;27;20562;-78
2023/01/02 06:21:04;;;;;;;12.60;5.57;;;11.90;99.90;;;;;;5155857;27;20078;-78
2023/01/02 06:23:29;;;;;;;8.98;5.65;;;11.70;99.90;;;;;;5156149;27;20158;-81
2023/01/02 06:26:00;;;;;;;13.75;6.05;;;11.20;99.90;;;;;;5155962;27;20574;-79
2023/01/02 06:28:25;;;;;;;11.30;5.25;;;12.40;99.90;;;;;;5155780;27;20049;-79
2023/01/02 06:30:51;;;;;;;9.30;5.10;;;11.50;99.90;;;;;;5155527;27;20039;-82
2023/01/02 06:33:17;;;;;;;7.75;5.38;;;11.70;99.90;;;;;;5137304;27;20042;-80
2023/01/02 06:35:42;;;;;;;9.75;5.45;;;11.70;99.90;;;;;;5120330;27;20069;-81
2023/01/02 06:38:08;;;;;;;9.20;5.28;;;11.80;99.90;;;;;;5120315;27;20047;-83
2023/01/02 06:40:33;;;;;;;12.60;5.68;;;11.00;99.90;;;;;;5155680;27;20497;-80
2023/01/02 06:42:59;;;;;;;13.90;5.72;;;12.50;99.90;;;;;;5156075;27;20046;-80
2023/01/02 06:45:24;;;;;;;10.68;5.80;;;12.00;99.90;;;;;;5137152;27;20105;-80
2023/01/02 06:47:57;;;;;;;8.93;5.45;;;11.90;99.90;;;;;;5155246;27;20488;-82
2023/01/02 06:50:22;;;;;;;12.00;5.70;;;11.80;99.90;;;;;;5155484;27;20043;-78
2023/01/02 06:52:48;;;;;;;11.50;6.13;;;12.00;99.90;;;;;;5156014;27;20038;-78
2023/01/02 06:55:14;;;;;;;13.60;5.72;;;12.00;99.90;;;;;;5155431;27;20082;-79
2023/01/02 06:57:39;;;;;;;9.25;5.43;;;11.70;99.90;;;;;;5155375;27;20046;-78
2023/01/02 07:00:05;;;;;;;8.77;5.72;;;12.20;99.90;;;;;;5119840;27;20394;-82
2023/01/02 07:02:31;;;;;;;9.63;5.47;;;11.70;99.90;;;;;;5155037;27;20468;-78
2023/01/02 07:04:56;;;;;;;11.88;6.18;;;11.70;99.90;;;;;;5155384;27;20082;-81
2023/01/02 07:07:22;;;;;;;10.75;6.03;;;11.50;99.90;;;;;;5155308;27;20039;-82
2023/01/02 07:09:48;;;;;;;9.95;6.07;;;11.40;99.90;;;;;;5137182;27;20087;-78
2023/01/02 07:12:13;;;;;;;10.50;5.97;;;12.00;99.90;;;;;;5136920;27;20038;-82
2023/01/02 07:14:42;;;;;;;10.40;6.18;;;11.70;99.90;;;;;;5157627;27;20045;-81
2023/01/02 07:17:07;;;;;;;12.10;5.85;;;11.70;99.90;;;;;;5145748;27;20047;-81
2023/01/02 07:19:33;;;;;;;10.68;5.65;;;11.90;99.90;;;;;;5159382;27;20054;-79
2023/01/02 07:21:59;;;;;;;9.93;6.18;;;11.90;99.90;;;;;;5159695;27;20042;-80
2023/01/02 07:24:24;;;;;;;12.05;5.75;;;11.70;99.90;;;;;;5159287;27;20042;-80
2023/01/02 07:26:50;;;;;;;10.43;6.22;;;11.70;99.90;;;;;;5158918;27;20061;-81
2023/01/02 07:29:15;;;;;;;12.65;6.55;;;12.20;99.90;;;;;;5159259;27;20139;-79
2023/01/02 07:31:41;;;;;;;21.30;7.53;;;11.90;99.90;;;;;;5159384;27;20476;-79
2023/01/02 07:34:06;;;;;;;18.77;6.95;;;12.00;99.90;;;;;;5159102;27;20046;-81
2023/01/02 07:36:32;;;;;;;12.18;7.13;;;12.30;99.90;;;;;;5159473;27;20565;-81
2023/01/02 07:38:57;;;;;;;12.20;5.88;;;11.50;99.90;;;;;;5159360;27;20046;-85
2023/01/02 07:41:24;;;;;;;8.00;4.82;;;11.40;99.90;;;;;;5159220;27;20078;-83
2023/01/02 07:43:52;;;;;;;;;;;11.50;99.90;;;;;;5159502;27;20486;-80
2023/01/02 07:46:19;;;;;;;4.43;2.58;;;11.50;99.90;;;;;;5140652;27;19922;-79
2023/01/02 07:48:44;;;;;;;;;;;11.40;99.90;;;;;;5159024;27;20046;-81
2023/01/02 07:51:11;;;;;;;4.75;2.28;;;11.30;99.90;;;;;;5158750;27;20278;-84
2023/01/02 07:53:38;;;;;;;2.35;2.00;;;10.70;99.90;;;;;;5140597;27;20042;-80
2023/01/02 07:56:04;;;;;;;;;;;12.00;99.90;;;;;;5159018;27;20050;-80
2023/01/02 07:58:30;;;;;;;7.38;2.08;;;11.10;99.90;;;;;;5158587;27;19926;-80
2023/01/02 08:00:57;;;;;;;3.13;2.20;;;11.00;99.90;;;;;;5158471;27;20046;-81
2023/01/02 08:03:23;;;;;;;2.83;2.40;;;10.60;99.90;;;;;;5158468;27;20042;-78
2023/01/02 08:05:49;;;;;;;2.87;2.57;;;10.80;99.90;;;;;;5158478;27;20046;-80
2023/01/02 08:08:15;;;;;;;3.97;3.15;;;10.80;99.90;;;;;;5158461;27;20043;-80
2023/01/02 08:10:40;;;;;;;3.85;2.90;;;10.70;99.90;;;;;;5158386;27;20127;-80
2023/01/02 08:13:06;;;;;;;3.58;2.97;;;10.20;99.90;;;;;;5139944;27;20078;-76
2023/01/02 08:15:33;;;;;;;4.07;3.35;;;10.50;99.90;;;;;;5158068;27;20091;-77
2023/01/02 08:17:59;;;;;;;4.30;3.72;;;10.50;99.90;;;;;;5139979;27;20038;-77
2023/01/02 08:20:25;;;;;;;6.75;3.83;;;9.90;99.90;;;;;;5158262;27;20061;-76
2023/01/02 08:22:51;;;;;;;4.70;4.07;;;10.40;99.90;;;;;;5158165;27;20042;-77
2023/01/02 08:25:17;;;;;;;4.47;3.95;;;10.40;99.90;;;;;;5139700;27;20129;-76
2023/01/02 08:27:42;;;;;;;4.75;3.75;;;10.70;99.90;;;;;;5157429;27;20082;-82
2023/01/02 08:30:09;;;;;;;5.30;4.38;;;10.30;99.90;;;;;;5158418;27;20485;-78
2023/01/02 08:32:36;;;;;;;4.90;4.13;;;10.20;99.90;;;;;;5158039;27;20122;-78
2023/01/02 08:35:02;;;;;;;4.95;4.07;;;10.10;99.90;;;;;;5158102;27;20053;-77
2023/01/02 08:37:27;;;;;;;6.00;4.43;;;10.10;99.90;;;;;;5157958;27;20058;-77
2023/01/02 08:39:53;;;;;;;7.63;4.40;;;10.10;99.90;;;;;;5158062;27;20482;-77
2023/01/02 08:42:18;;;;;;;6.70;4.90;;;10.50;99.90;;;;;;5157193;27;20051;-77
2023/01/02 08:44:44;;;;;;;5.72;4.38;;;10.10;99.90;;;;;;5157914;27;20047;-78
2023/01/02 08:47:10;;;;;;;7.53;4.57;;;9.60;99.90;;;;;;5157537;27;20372;-77
2023/01/02 08:49:35;;;;;;;7.35;4.78;;;10.00;99.90;;;;;;5157862;27;20458;-76
2023/01/02 08:52:01;;;;;;;5.45;4.25;;;9.50;99.90;;;;;;5157712;27;20118;-81
2023/01/02 08:54:27;;;;;;;5.63;4.00;;;9.50;99.90;;;;;;5157906;27;20049;-83
2023/01/02 08:56:52;;;;;;;7.82;3.95;;;10.50;99.90;;;;;;5139165;27;20372;-81
2023/01/02 08:59:18;;;;;;;5.25;3.42;;;9.30;99.90;;;;;;5138970;27;20038;-82
2023/01/02 09:01:44;;;;;;;4.65;3.22;;;9.80;99.90;;;;;;5157279;27;20046;-81
2023/01/02 09:04:10;;;;;;;5.57;3.53;;;9.40;99.90;;;;;;5122230;27;20077;-80
2023/01/02 09:06:36;;;;;;;3.78;2.80;;;9.70;99.90;;;;;;5138991;27;20051;-78
2023/01/02 09:09:03;;;;;;;4.13;3.03;;;9.70;99.90;;;;;;5157150;27;20089;-81
2023/01/02 09:11:36;;;;;;;4.85;3.25;;;9.60;99.90;;;;;;5139082;27;20050;-80
2023/01/02 09:14:03;;;;;;;3.38;2.33;;;9.60;99.90;;;;;;5157109;27;20050;-79
2023/01/02 09:16:29;;;;;;;6.07;2.75;;;9.60;99.90;;;;;;5157130;27;20081;-79
2023/01/02 09:18:57;;;;;;;3.30;2.45;;;9.50;99.90;;;;;;5157108;27;20077;-80
2023/01/02 09:21:23;;;;;;;6.30;3.17;;;9.50;99.90;;;;;;5138492;27;20363;-80
2023/01/02 09:23:49;;;;;;;4.60;2.58;;;9.00;99.90;;;;;;5121548;27;20060;-80
2023/01/02 09:26:15;;;;;;;4.90;2.38;;;9.40;99.90;;;;;;5156962;27;20450;-80
2023/01/02 09:28:40;;;;;;;4.18;2.50;;;9.70;99.90;;;;;;5156869;27;20042;-81
2023/01/02 09:31:11;;;;;;;2.47;1.92;;;9.30;99.90;;;;;;5156769;27;20042;-82
2023/01/02 09:33:38;;;;;;;3.30;2.00;;;9.30;99.90;;;;;;5156822;27;20042;-81
2023/01/02 09:36:06;;;;;;;2.85;1.88;;;9.30;99.90;;;;;;5138365;27;20039;-79
2023/01/02 09:38:33;;;;;;;3.58;1.83;;;9.20;99.90;;;;;;5138055;27;20360;-80
2023/01/02 09:41:01;;;;;;;3.63;1.88;;;9.20;99.90;;;;;;5138100;27;20042;-79
2023/01/02 09:43:37;;;;;;;3.22;1.83;;;9.20;99.90;;;;;;5138018;27;20108;-82
2023/01/02 09:46:06;;;;;;;3.20;2.00;;;9.30;99.90;;;;;;5156566;27;20121;-79
2023/01/02 09:48:34;;;;;;;3.78;2.45;;;9.20;99.90;;;;;;5156595;27;20045;-83
2023/01/02 09:51:02;;;;;;;3.25;2.10;;;8.30;99.90;;;;;;5137805;27;20046;-83
2023/01/02 09:53:28;;;;;;;4.70;2.58;;;9.50;99.90;;;;;;5137818;27;20050;-85
2023/01/02 09:56:06;;;;;;;4.43;2.23;;;9.80;99.90;;;;;;5138016;27;20042;-83
2023/01/02 09:58:42;;;;;;;5.70;2.42;;;8.30;99.90;;;;;;5121099;27;20050;-80
2023/01/02 10:01:32;;;;;;;3.17;2.38;;;9.20;99.90;;;;;;5138135;27;20038;-81
2023/01/02 10:04:32;;;;;;;3.95;2.38;;;9.20;99.90;;;;;;5156284;27;20131;-80
2023/01/02 10:07:33;;;;;;;3.80;2.40;;;9.20;99.90;;;;;;5156618;27;20099;-82
2023/01/02 10:10:08;;;;;;;3.83;2.28;;;9.20;99.90;;;;;;5103604;27;20447;-80
2023/01/02 10:12:45;;;;;;;3.53;2.13;;;9.20;99.90;;;;;;5156192;27;20035;-83
2023/01/02 10:15:17;;;;;;;4.15;1.85;;;9.20;99.90;;;;;;5156072;27;20098;-83
2023/01/02 10:17:48;;;;;;;2.90;2.10;;;8.90;99.90;;;;;;5156041;27;20046;-82
2023/01/02 10:20:14;;;;;;;3.08;2.00;;;9.80;99.90;;;;;;5156088;27;20050;-81
2023/01/02 10:22:48;;;;;;;3.15;1.90;;;9.70;99.90;;;;;;5155787;27;20042;-82
2023/01/02 10:25:32;;;;;;;3.40;1.90;;;8.90;99.90;;;;;;5155907;27;20126;-80
2023/01/02 10:28:12;;;;;;;4.25;2.05;;;9.20;99.90;;;;;;5155823;27;20042;-81
2023/01/02 10:30:45;;;;;;;2.47;2.00;;;9.30;99.90;;;;;;5155986;27;20066;-79
2023/01/02 10:33:45;;;;;;;3.50;1.92;;;9.30;99.90;;;;;;5155720;27;20168;-78
2023/01/02 10:36:38;;;;;;;3.88;2.22;;;9.30;99.90;;;;;;5155623;27;20045;-80
2023/01/02 10:39:11;;;;;;;3.83;2.25;;;9.20;99.90;;;;;;5137558;27;20134;-80
2023/01/02 10:41:38;;;;;;;3.70;2.08;;;9.20;99.90;;;;;;5137210;27;20054;-79
2023/01/02 10:44:13;;;;;;;3.53;2.08;;;9.70;99.90;;;;;;5155614;27;20116;-80
2023/01/02 10:46:40;;;;;;;3.50;2.20;;;9.20;99.90;;;;;;5137613;27;20114;-84
2023/01/02 10:49:10;;;;;;;2.58;2.00;;;9.20;99.90;;;;;;5136443;27;20501;-82
2023/01/02 10:51:41;;;;;;;4.70;2.15;;;9.70;99.90;;;;;;5155507;27;20038;-80
2023/01/02 10:54:08;;;;;;;3.22;2.10;;;9.20;99.90;;;;;;5155629;27;20046;-86
2023/01/02 10:56:35;;;;;;;;;;;9.20;99.90;;;;;;5155827;27;20395;-82
2023/01/02 10:59:02;;;;;;;2.97;1.73;;;9.20;99.90;;;;;;5136966;27;19979;-80
2023/01/02 11:01:28;;;;;;;4.32;2.30;;;10.10;99.90;;;;;;5155882;27;20125;-78
2023/01/02 11:03:57;;;;;;;5.50;3.10;;;9.10;99.90;;;;;;5155294;27;20042;-81
2023/01/02 11:06:30;;;;;;;4.47;2.03;;;9.60;99.90;;;;;;5136873;27;20047;-79
2023/01/02 11:08:59;;;;;;;5.38;2.28;;;8.80;99.90;;;;;;5155317;27;20057;-81
2023/01/02 11:11:26;;;;;;;4.05;2.13;;;9.50;99.90;;;;;;5154791;27;20565;-79
2023/01/02 11:13:56;;;;;;;3.88;2.03;;;9.30;99.90;;;;;;5155263;27;20041;-80
2023/01/02 11:16:24;;;;;;;4.07;2.45;;;9.40;99.90;;;;;;5155306;27;20039;-83
2023/01/02 11:18:53;;;;;;;5.30;2.55;;;9.40;99.90;;;;;;5155452;27;20049;-82
2023/01/02 11:21:30;;;;;;;3.22;2.03;;;9.50;99.90;;;;;;5155501;27;20038;-83
2023/01/02 11:24:03;;;;;;;;;;;9.50;99.90;;;;;;5137775;27;20435;-86
2023/01/02 11:26:32;;;;;;;4.03;2.28;;;9.50;99.90;;;;;;5137229;27;20271;-85
2023/01/02 11:29:14;;;;;;;3.92;2.13;;;8.90;99.90;;;;;;5120396;27;20053;-84
2023/01/02 11:31:52;;;;;;;3.05;1.90;;;9.70;99.90;;;;;;5120489;27;20498;-86
2023/01/02 11:34:21;;;;;;;4.40;2.20;;;9.70;99.90;;;;;;5139760;27;20130;-84
2023/01/02 11:37:05;;;;;;;4.75;2.63;;;8.80;99.90;;;;;;5155064;27;20513;-85
2023/01/02 11:39:33;;;;;;;4.43;2.10;;;9.30;99.90;;;;;;5121443;27;20398;-83
2023/01/02 11:45:16;;;;;;;3.05;2.00;;;9.40;99.90;;;;;;5122966;27;20050;-83
2023/01/02 11:47:51;;;;;;;5.57;2.40;;;9.20;99.90;;;;;;5137093;27;20039;-82
2023/01/02 11:50:33;;;;;;;3.88;2.50;;;9.50;99.90;;;;;;5137580;27;20113;-82
2023/01/02 11:53:11;;;;;;;5.25;2.10;;;9.50;99.90;;;;;;5155637;27;20138;-85
2023/01/02 11:55:58;;;;;;;4.60;2.20;;;9.50;99.90;;;;;;5119811;27;20049;-86
2023/01/02 11:58:33;;;;;;;5.90;2.60;;;9.50;99.90;;;;;;5155613;27;20387;-81
2023/01/02 12:01:26;;;;;;;3.65;2.60;;;9.60;99.90;;;;;;5155081;27;20099;-84
2023/01/02 12:03:53;;;;;;;4.07;2.30;;;9.50;99.90;;;;;;5158656;27;20050;-83
2023/01/02 12:06:22;;;;;;;5.43;2.42;;;9.50;99.90;;;;;;5123238;27;20054;-83
2023/01/02 12:09:10;;;;;;;4.90;2.90;;;9.10;99.90;;;;;;5123465;27;20046;-81
2023/01/02 12:11:40;;;;;;;3.22;2.60;;;9.40;99.90;;;;;;5158928;27;20046;-91
2023/01/02 12:14:14;;;;;;;7.25;3.10;;;9.20;99.90;;;;;;5141251;27;20034;-83
2023/01/02 12:16:58;;;;;;;6.50;3.60;;;8.70;99.90;;;;;;5140752;27;20125;-86
2023/01/02 12:20:01;;;;;;;6.40;3.97;;;9.50;99.90;;;;;;5123416;27;20042;-81
2023/01/02 12:22:57;;;;;;;8.68;4.35;;;9.50;99.90;;;;;;5141251;27;20043;-87
2023/01/02 12:25:35;;;;;;;10.95;4.95;;;9.50;99.90;;;;;;5140603;27;20490;-85
2023/01/02 12:28:30;;;;;;;8.45;4.85;;;9.40;99.90;;;;;;5140043;27;20367;-84
2023/01/02 12:31:10;;;;;;;7.10;4.50;;;9.40;99.90;;;;;;5122638;27;20086;-86
2023/01/02 12:33:39;;;;;;;6.85;4.63;;;9.40;99.90;;;;;;5123182;27;20046;-81
2023/01/02 12:36:20;;;;;;;7.38;4.22;;;10.20;99.90;;;;;;5140238;27;20392;-85
2023/01/02 12:39:13;;;;;;;6.85;3.63;;;10.10;99.90;;;;;;5139854;27;20125;-83
2023/01/02 12:42:10;;;;;;;6.50;3.15;;;9.50;99.90;;;;;;5139841;27;20053;-83
2023/01/02 12:44:52;;;;;;;6.28;3.13;;;9.50;99.90;;;;;;5158119;27;20094;-76
2023/01/02 12:47:42;;;;;;;4.65;2.78;;;9.20;99.90;;;;;;5157893;27;20387;-79
2023/01/02 12:50:48;;;;;;;9.60;2.60;;;9.50;99.90;;;;;;5158221;27;20038;-83
2023/01/02 12:53:26;;;;;;;7.70;2.45;;;9.40;99.90;;;;;;5122576;27;20043;-83
2023/01/02 12:55:51;;;;;;;5.50;2.22;;;9.40;99.90;;;;;;5138801;27;20039;-82
2023/01/02 12:58:46;;;;;;;6.93;2.05;;;9.90;99.90;;;;;;5122169;27;20187;-84
2023/01/02 13:01:14;;;;;;;7.05;1.90;;;9.40;99.90;;;;;;5157510;27;20092;-83
2023/01/02 13:03:48;;;;;;;3.25;1.90;;;9.30;99.90;;;;;;5121985;27;20038;-84
2023/01/02 13:06:28;;;;;;;8.85;2.03;;;9.50;99.90;;;;;;5122102;27;20046;-83
2023/01/02 13:09:04;;;;;;;8.32;2.45;;;9.30;99.90;;;;;;5139009;27;20042;-84
2023/01/02 13:11:47;;;;;;;4.38;2.15;;;9.30;99.90;;;;;;5139191;27;20047;-84